This is the latest recevied weather packets stored in our database for station/object N3DXC. If no packets are shown the sender has not sent any weather packets the latest 1 day(s).
| Time | Temp. | Humidity | Pressure | Rain* | Wind** | Luminosity | Snow |
|---|---|---|---|---|---|---|---|
| 1836274578 | 17.22° C | 77% | 1020.8 hPa | 0 mm | 1.34 m/s, 56° | - | - |
| 1836274516 | 17.22° C | 77% | 1020.7 hPa | 0 mm | 0.89 m/s, 45° | - | - |
| 1836274429 | 17.22° C | 76% | 1020.9 hPa | 0 mm | 2.68 m/s, 59° | - | - |
| 1836274187 | 17.22° C | 77% | 1020.9 hPa | 0 mm | 1.79 m/s, 71° | - | - |
| 1836274096 | 17.78° C | 77% | 1020.7 hPa | 0 mm | 0.45 m/s, 29° | - | - |
| 1836273977 | 17.78° C | 76% | 1020.7 hPa | 0 mm | 0 m/s | - | - |
| 1778041489 | 17.78° C | 55% | 1008.8 hPa | 0 mm | 4.02 m/s, 213° | - | - |
| 1778041188 | 17.22° C | 55% | 1008.7 hPa | 0 mm | 4.47 m/s, 205° | - | - |
| 1778040889 | 17.78° C | 54% | 1008.8 hPa | 0 mm | 4.02 m/s, 208° | - | - |
| 1778040589 | 17.22° C | 55% | 1008.7 hPa | 0 mm | 3.58 m/s, 210° | - | - |
| 1778040289 | 17.78° C | 55% | 1008.8 hPa | 0 mm | 4.47 m/s, 217° | - | - |
| 1778039989 | 17.78° C | 55% | 1008.8 hPa | 0 mm | 3.58 m/s, 215° | - | - |
| 1778039690 | 17.22° C | 55% | 1008.8 hPa | 0 mm | 6.71 m/s, 225° | - | - |
| 1778039389 | 17.22° C | 56% | 1008.8 hPa | 0 mm | 4.47 m/s, 225° | - | - |
| 1778039090 | 16.67° C | 57% | 1009 hPa | 0 mm | 2.68 m/s, 219° | - | - |
| 1778038789 | 16.67° C | 57% | 1008.9 hPa | 0 mm | 2.24 m/s, 203° | - | - |
| 1778038491 | 16.67° C | 57% | 1008.9 hPa | 0 mm | 1.79 m/s, 209° | - | - |
| 1778038189 | 16.67° C | 58% | 1009 hPa | 0 mm | 2.68 m/s, 209° | - | - |
| 1778037889 | 16.67° C | 58% | 1009 hPa | 0 mm | 2.24 m/s, 209° | - | - |
| 1778037589 | 16.67° C | 58% | 1008.9 hPa | 0 mm | 1.79 m/s, 209° | - | - |
| 1778037289 | 16.67° C | 58% | 1008.9 hPa | 0 mm | 2.68 m/s, 227° | - | - |
| 1778036989 | 16.67° C | 58% | 1008.9 hPa | 0 mm | 1.79 m/s, 219° | - | - |
| 1778036689 | 16.67° C | 58% | 1008.8 hPa | 0 mm | 2.24 m/s, 210° | - | - |
| 1778036389 | 16.67° C | 58% | 1008.8 hPa | 0 mm | 2.24 m/s, 222° | - | - |
| 1778036089 | 16.67° C | 58% | 1008.8 hPa | 0 mm | 2.24 m/s, 202° | - | - |
* Rain latest hour (hover to see other rain measurements)
** Current wind speed in m/s (hover to see current wind gust speed)